West Wareham, MA (02576)

9:17 PM EDT on April 30, 2017 (GMT -0400)
KXIMAWAR2 | | Change Station

Elev 88 ft 41.80 °N, 70.78 °W | Updated 4 minutes ago

Overcast
Overcast
47.1 °F
Feels Like 47 °F
N
2.0
Wind Variable Wind from ESE
Gusts 4.0 mph

Today
High -- | Low -- °F
--% Chance of Precip.
Yesterday
High -- | Low -- °F
Precip. -- in
Pressure 30.27 in
Visibility 10.0 miles
Clouds Overcast 4500 ft
Windchill 47 °F
Dew Point 39 °F
Humidity 74%
Rainfall 0.00 in
Snow Depth Not available.
5:40 AM 7:40 PM
Waxing Crescent, 27% visible
METAR KPYM 010052Z AUTO 15003KT 10SM OVC045 08/02 A3027 RMK AO2 SLP251 T00830022 TSNO
Pressure 30.27 in
Visibility 10.0 miles
Clouds Overcast 4500 ft
Windchill 47 °F
Dew Point 39 °F
Humidity 74%
Rainfall 0.00 in
Snow Depth Not available.
5:40 AM 7:40 PM
Waxing Crescent, 27% visible
METAR KPYM 010052Z AUTO 15003KT 10SM OVC045 08/02 A3027 RMK AO2 SLP251 T00830022 TSNO

Get Severe Weather Alerts

Thanks for signing up!

Be on the lookout for a verification email in your inbox.

You'll start receiving the daily forecast at 8 AM.

×

10-Day Weather Forecast

Almanac

Astronomy

Apr. 30, 2017 Rise Set
Actual Time
Civil Twilight
Nautical Twilight
Astronomical Twilight
Moon
Length of Visible Light
Length of Day
Tomorrow will be .
, % of the Moon is Illuminated

Today's Extremes

State Highs State Lows

Community

WunderPhotos

WunderBlog® & News

Nearby

Air Quality

  Air Quality AQ Index Pollutant
Not available.

Snow Depth

Station Depth Elevation

Earthquake Activity

City Distance Mag. Time & Date
Minimum magnitude displayed is 2.5.

Coastal Water Temperatures

Place Temperature

Stations

Nearby Weather Stations

Station Location Temp. Windchill Dew Point Humidity Wind Precip. Elev Updated Type
                   

Watches & Warnings

There are currently no watches in effect.